Time;durP1;ratioP1;P1;durP2;ratioP2;P2;SDS_P1;SDS_P2;PMS_P1;PMS_P2;Temp;Humidity;BMP_temperature;BMP_pressure;BME280_temperature;BME280_humidity;BME280_pressure;Samples;Min_cycle;Max_cycle;Signal;HPM_P1;HPM_P2
2023/06/20 13:02:11;;;;;;;17.30;6.50;;;;;;;37.66;28.21;98876.44;132796;1296;557434;-59
2023/06/20 13:05:13;;;;;;;13.70;6.10;;;;;;;38.30;28.08;98872.84;134976;1283;86480;-58
2023/06/20 13:08:16;;;;;;;17.10;6.20;;;;;;;38.64;27.31;98872.42;135183;1284;22550;-59
2023/06/20 13:11:18;;;;;;;16.70;6.50;;;;;;;38.76;27.55;98872.36;135149;1282;22550;-58
2023/06/20 13:14:21;;;;;;;18.30;6.60;;;;;;;38.76;27.37;98866.28;135161;1283;24377;-59
2023/06/20 13:17:23;;;;;;;15.00;6.20;;;;;;;38.76;27.34;98867.80;135156;1276;22527;-59
2023/06/20 13:20:26;;;;;;;16.10;6.80;;;;;;;38.64;27.09;98866.78;135138;1283;22538;-59
2023/06/20 13:23:29;;;;;;;16.00;6.10;;;;;;;38.58;27.16;98859.60;135141;1283;22544;-59
2023/06/20 13:26:31;;;;;;;17.80;6.70;;;;;;;38.58;27.80;98862.84;135148;1283;22548;-58
2023/06/20 13:29:33;;;;;;;16.30;6.40;;;;;;;38.74;27.98;98864.33;135557;1279;22569;-59
2023/06/20 13:32:37;;;;;;;16.10;6.40;;;;;;;38.83;27.33;98852.27;135567;1279;22540;-59
2023/06/20 13:35:39;;;;;;;16.80;6.60;;;;;;;38.85;27.55;98853.04;135618;1279;22537;-59
2023/06/20 13:38:43;;;;;;;16.70;6.70;;;;;;;38.81;28.05;98853.33;135596;1279;22540;-59
2023/06/20 13:41:45;;;;;;;17.10;6.30;;;;;;;38.76;27.91;98855.64;135580;1279;22541;-59
2023/06/20 13:44:48;;;;;;;16.80;6.70;;;;;;;38.85;27.56;98849.20;135578;1279;22535;-59
2023/06/20 13:47:52;;;;;;;15.70;6.50;;;;;;;38.67;26.65;98850.98;135567;1279;22542;-59
2023/06/20 13:50:54;;;;;;;17.60;6.90;;;;;;;38.07;26.89;98849.02;135561;1279;22549;-60
2023/06/20 13:53:57;;;;;;;15.40;6.30;;;;;;;38.30;27.55;98846.84;135598;1279;22566;-59
2023/06/20 13:56:59;;;;;;;17.30;6.90;;;;;;;38.28;27.99;98847.28;135596;1279;22624;-59
2023/06/20 14:00:05;;;;;;;20.90;6.90;;;;;;;38.41;27.97;98842.48;135564;1279;22548;-59
2023/06/20 14:03:08;;;;;;;16.40;6.70;;;;;;;38.69;27.36;98836.75;135527;1279;22626;-59
2023/06/20 14:06:10;;;;;;;18.90;6.40;;;;;;;38.63;28.13;98839.77;135551;1279;22531;-59
2023/06/20 14:09:12;;;;;;;16.50;6.60;;;;;;;38.67;27.67;98837.45;135512;1279;22530;-59
2023/06/20 14:12:15;;;;;;;17.00;6.40;;;;;;;38.68;27.55;98839.60;135563;1272;22543;-59
2023/06/20 14:15:17;;;;;;;16.10;6.80;;;;;;;38.73;27.99;98836.86;135520;1279;23890;-59
2023/06/20 14:18:20;;;;;;;18.60;6.60;;;;;;;38.72;27.72;98832.20;135547;1279;22542;-59
2023/06/20 14:21:23;;;;;;;15.80;6.40;;;;;;;38.57;26.78;98838.92;135536;1279;24381;-60
2023/06/20 14:24:26;;;;;;;15.20;6.30;;;;;;;38.32;27.78;98835.93;135599;1279;24232;-59
2023/06/20 14:27:28;;;;;;;17.60;6.60;;;;;;;38.41;27.62;98837.23;135590;1279;22537;-59
2023/06/20 14:30:31;;;;;;;16.30;6.60;;;;;;;38.48;27.53;98833.88;135618;1258;22546;-59
2023/06/20 14:33:33;;;;;;;16.50;6.60;;;;;;;38.51;27.39;98835.30;135564;1279;24380;-60
2023/06/20 14:36:37;;;;;;;16.70;6.20;;;;;;;38.60;27.49;98832.98;135547;1280;22570;-59
2023/06/20 14:39:40;;;;;;;17.70;6.60;;;;;;;38.40;28.01;98833.23;135467;1280;22555;-59
2023/06/20 14:42:42;;;;;;;18.30;7.10;;;;;;;38.41;27.62;98834.12;135584;1279;22529;-59
2023/06/20 14:45:44;;;;;;;18.50;6.40;;;;;;;38.42;27.62;98829.88;135564;1279;22530;-59
2023/06/20 14:48:48;;;;;;;15.80;6.50;;;;;;;38.17;27.53;98828.00;135590;1280;22634;-59
2023/06/20 14:51:51;;;;;;;16.10;6.40;;;;;;;38.02;27.70;98827.12;135551;1280;22547;-58
2023/06/20 14:54:53;;;;;;;16.70;6.60;;;;;;;37.84;28.04;98827.12;135587;1279;22628;-59
2023/06/20 14:57:56;;;;;;;18.20;6.70;;;;;;;37.64;28.20;98824.39;135620;1279;22537;-59
2023/06/20 15:00:58;;;;;;;19.50;6.60;;;;;;;37.45;28.54;98825.30;135582;1279;22533;-59
2023/06/20 15:04:02;;;;;;;17.20;6.50;;;;;;;37.40;28.44;98821.62;135588;1279;22567;-60
2023/06/20 15:07:05;;;;;;;17.40;6.60;;;;;;;37.43;28.33;98820.52;135581;1280;22583;-60
2023/06/20 15:10:08;;;;;;;15.30;6.40;;;;;;;37.74;28.37;98817.20;135553;1263;22642;-60
2023/06/20 15:13:11;;;;;;;18.70;6.80;;;;;;;38.23;27.97;98820.11;135587;1280;24277;-57
2023/06/20 15:16:13;;;;;;;21.00;6.60;;;;;;;38.79;27.46;98815.44;135608;1279;22545;-57
2023/06/20 15:19:16;;;;;;;19.00;6.70;;;;;;;39.08;27.35;98813.36;135548;1280;22545;-60
2023/06/20 15:22:18;;;;;;;20.60;6.60;;;;;;;39.21;27.09;98813.21;135550;1279;22523;-60
2023/06/20 15:25:21;;;;;;;17.90;6.60;;;;;;;39.37;26.96;98810.42;135569;1279;25236;-61
2023/06/20 15:28:23;;;;;;;18.20;6.80;;;;;;;39.75;26.99;98810.13;135605;1279;23890;-60
2023/06/20 15:31:25;;;;;;;22.80;6.80;;;;;;;40.26;26.76;98814.33;135562;1279;22557;-60
2023/06/20 15:34:29;;;;;;;18.90;6.90;;;;;;;40.88;26.16;98813.45;135604;1280;23881;-60
2023/06/20 15:37:31;;;;;;;24.80;7.20;;;;;;;41.71;25.89;98813.77;135585;1280;22539;-60
2023/06/20 15:40:34;;;;;;;23.70;7.20;;;;;;;42.59;25.16;98810.77;135564;1279;22536;-61
2023/06/20 15:43:36;;;;;;;21.10;6.20;;;;;;;43.43;23.99;98807.20;135569;1280;22566;-61
2023/06/20 15:46:39;;;;;;;26.40;7.20;;;;;;;43.90;23.09;98804.66;135455;1279;22541;-61
2023/06/20 15:49:41;;;;;;;15.80;5.70;;;;;;;43.87;22.83;98808.50;135554;1279;22540;-61
2023/06/20 15:52:43;;;;;;;29.80;6.80;;;;;;;43.73;22.70;98808.01;135526;1279;22566;-60
2023/06/20 15:55:46;;;;;;;26.00;7.00;;;;;;;43.54;22.73;98809.52;135535;1267;22636;-62
2023/06/20 15:58:48;;;;;;;19.60;6.20;;;;;;;42.84;23.08;98810.88;135502;1271;22538;-60
2023/06/20 16:01:51;;;;;;;19.60;6.10;;;;;;;41.27;23.72;98811.60;135459;1271;22558;-59
2023/06/20 16:04:53;;;;;;;39.90;7.80;;;;;;;40.40;24.44;98813.25;135469;1270;22530;-61
2023/06/20 16:07:55;;;;;;;22.20;7.10;;;;;;;40.01;25.10;98814.98;135460;1279;22559;-59
2023/06/20 16:10:58;;;;;;;23.00;6.10;;;;;;;39.68;25.57;98814.95;135368;1279;22583;-63
2023/06/20 16:14:00;;;;;;;21.50;6.70;;;;;;;39.31;25.79;98812.59;135370;1280;25382;-63
2023/06/20 16:17:03;;;;;;;20.50;6.90;;;;;;;38.88;26.26;98810.06;135356;1280;22541;-62
2023/06/20 16:20:06;;;;;;;19.00;6.90;;;;;;;39.10;26.28;98809.57;135320;1281;25501;-61
2023/06/20 16:23:09;;;;;;;18.00;6.30;;;;;;;39.44;25.97;98807.63;135329;1281;22530;-60
2023/06/20 16:26:11;;;;;;;18.80;7.20;;;;;;;38.75;26.30;98808.05;135352;1263;22538;-59
2023/06/20 16:29:14;;;;;;;19.50;7.00;;;;;;;37.62;27.20;98810.55;135377;1280;22527;-60
2023/06/20 16:32:17;;;;;;;21.90;6.70;;;;;;;36.87;28.10;98810.80;135340;1281;22639;-59
2023/06/20 16:35:19;;;;;;;17.20;6.60;;;;;;;36.52;28.44;98815.31;135354;1270;22550;-62
2023/06/20 16:38:22;;;;;;;19.10;7.10;;;;;;;36.29;29.16;98821.28;135359;1280;23889;-66
2023/06/20 16:41:25;;;;;;;17.00;6.80;;;;;;;36.26;29.18;98819.11;135347;1269;22533;-59
2023/06/20 16:44:27;;;;;;;17.50;6.80;;;;;;;36.54;29.21;98819.70;135370;1280;22544;-60
2023/06/20 16:47:30;;;;;;;16.80;7.00;;;;;;;36.48;29.57;98815.23;135381;1263;22561;-58
2023/06/20 16:50:32;;;;;;;17.10;6.70;;;;;;;36.72;29.56;98814.20;135813;1281;22561;-59
2023/06/20 16:53:34;;;;;;;17.30;7.10;;;;;;;36.61;29.75;98812.20;135160;1280;22554;-59
2023/06/20 16:56:37;;;;;;;20.00;7.10;;;;;;;35.98;30.49;98813.17;135229;1281;22543;-59
2023/06/20 16:59:39;;;;;;;20.10;7.30;;;;;;;35.66;31.06;98808.27;135204;1269;22550;-58
2023/06/20 17:02:42;;;;;;;19.70;7.40;;;;;;;35.09;31.18;98808.38;135213;1280;22563;-59
2023/06/20 17:05:44;;;;;;;19.20;7.50;;;;;;;34.50;31.91;98809.54;135114;1281;22576;-61
2023/06/20 17:08:47;;;;;;;20.80;8.30;;;;;;;33.91;32.57;98812.16;135296;1280;22587;-59
2023/06/20 17:11:50;;;;;;;20.30;7.80;;;;;;;33.59;33.09;98813.76;135285;1262;25328;-59
2023/06/20 17:14:52;;;;;;;23.60;9.00;;;;;;;33.24;33.57;98815.16;135393;1281;22694;-62
2023/06/20 17:17:58;;;;;;;23.00;7.60;;;;;;;32.85;34.22;98816.59;135440;1280;22526;-64
2023/06/20 17:21:01;;;;;;;20.90;7.70;;;;;;;32.59;34.59;98816.52;135477;1280;22553;-61
2023/06/20 17:24:04;;;;;;;19.80;7.90;;;;;;;32.37;35.06;98816.67;135466;1280;25475;-64
2023/06/20 17:27:06;;;;;;;20.40;8.30;;;;;;;32.00;35.71;98815.35;135481;1281;22547;-61
2023/06/20 17:30:09;;;;;;;20.40;8.10;;;;;;;31.59;36.22;98817.80;135497;1281;22554;-66
2023/06/20 17:33:11;;;;;;;22.10;10.00;;;;;;;31.26;36.91;98818.90;135419;1281;22553;-61
2023/06/20 17:36:14;;;;;;;23.10;9.50;;;;;;;31.17;37.43;98821.10;135509;1280;22597;-66
2023/06/20 17:39:16;;;;;;;21.40;9.40;;;;;;;30.89;38.17;98821.53;135565;1270;22541;-62
2023/06/20 17:42:19;;;;;;;20.70;9.60;;;;;;;30.77;38.78;98822.41;135564;1281;22544;-67
2023/06/20 17:45:21;;;;;;;24.10;10.50;;;;;;;30.63;39.30;98821.58;135657;1279;22531;-61
2023/06/20 17:48:24;;;;;;;27.60;11.40;;;;;;;30.33;40.64;98822.95;135652;1279;22538;-65
2023/06/20 17:51:26;;;;;;;24.20;11.00;;;;;;;29.97;40.83;98820.89;135586;1279;22537;-65
2023/06/20 17:54:29;;;;;;;22.10;10.50;;;;;;;29.66;41.20;98821.70;135615;1279;22552;-63
2023/06/20 17:57:31;;;;;;;23.50;10.50;;;;;;;29.39;41.76;98820.02;135661;1279;22802;-62
2023/06/20 18:00:34;;;;;;;20.20;10.30;;;;;;;29.09;42.29;98823.09;135649;1267;23718;-63
2023/06/20 18:03:37;;;;;;;29.80;11.50;;;;;;;28.78;43.12;98823.61;135691;1279;22756;-65
2023/06/20 18:06:39;;;;;;;25.60;10.90;;;;;;;28.52;43.72;98820.98;135950;1276;22527;-64
2023/06/20 18:09:41;;;;;;;23.70;10.50;;;;;;;28.41;44.23;98818.67;135998;1276;22633;-67
2023/06/20 18:12:44;;;;;;;22.50;10.70;;;;;;;28.25;44.27;98819.45;135957;1276;23923;-62
2023/06/20 18:15:47;;;;;;;23.80;10.50;;;;;;;28.08;44.62;98819.93;135940;1276;22514;-65
2023/06/20 18:18:50;;;;;;;23.40;11.30;;;;;;;27.87;45.13;98814.97;135973;1276;22530;-69
2023/06/20 18:21:54;;;;;;;22.70;10.60;;;;;;;27.69;45.33;98819.95;135940;1276;22533;-66
2023/06/20 18:24:57;;;;;;;23.70;10.30;;;;;;;27.49;45.53;98815.16;135954;1276;22519;-64
2023/06/20 18:27:59;;;;;;;23.60;10.60;;;;;;;27.34;46.14;98815.73;135947;1276;22524;-63
2023/06/20 18:31:02;;;;;;;25.90;10.30;;;;;;;27.22;46.02;98815.12;135959;1276;22631;-61
2023/06/20 18:34:05;;;;;;;26.20;11.10;;;;;;;27.04;46.42;98819.41;135937;1276;25476;-63
2023/06/20 18:37:07;;;;;;;28.20;12.30;;;;;;;26.92;47.23;98819.05;135968;1276;22546;-63
2023/06/20 18:40:10;;;;;;;27.50;12.50;;;;;;;26.74;48.41;98826.49;135953;1276;22520;-68
2023/06/20 18:43:13;;;;;;;23.80;11.80;;;;;;;26.50;49.28;98829.14;135975;1254;22552;-60
2023/06/20 18:46:16;;;;;;;26.20;12.10;;;;;;;26.28;49.56;98832.88;135971;1276;22616;-60
2023/06/20 18:49:18;;;;;;;25.80;13.70;;;;;;;26.14;49.93;98834.32;135761;1276;22523;-64
2023/06/20 18:52:21;;;;;;;32.20;17.30;;;;;;;26.01;50.18;98834.86;136126;1276;22709;-59
2023/06/20 18:55:24;;;;;;;29.40;14.20;;;;;;;25.88;50.80;98836.96;135894;1254;22550;-61
2023/06/20 18:58:26;;;;;;;31.40;14.20;;;;;;;25.75;51.24;98839.89;135845;1276;22598;-59
2023/06/20 19:01:29;;;;;;;27.50;13.40;;;;;;;25.62;51.41;98844.35;135970;1276;22573;-60
2023/06/20 19:04:31;;;;;;;24.90;12.90;;;;;;;25.50;52.12;98846.52;136105;1275;25590;-60
2023/06/20 19:07:34;;;;;;;24.80;13.00;;;;;;;25.41;53.49;98852.45;136103;1275;24078;-60
2023/06/20 19:10:36;;;;;;;26.10;13.90;;;;;;;25.22;53.98;98846.54;136109;1260;22531;-60
2023/06/20 19:13:39;;;;;;;25.70;13.40;;;;;;;25.11;54.03;98845.73;136043;1275;22533;-60
2023/06/20 19:16:42;;;;;;;28.50;14.10;;;;;;;25.01;54.64;98849.34;136080;1275;25246;-61
2023/06/20 19:19:44;;;;;;;26.10;15.00;;;;;;;24.84;55.67;98849.98;136117;1275;22516;-62
2023/06/20 19:22:50;;;;;;;28.50;15.20;;;;;;;24.71;56.25;98854.79;136107;1275;22527;-64
2023/06/20 19:25:53;;;;;;;29.30;15.40;;;;;;;24.57;57.02;98860.17;136090;1275;22543;-60
2023/06/20 19:28:56;;;;;;;27.80;14.50;;;;;;;24.46;57.71;98864.45;136121;1275;22530;-60
2023/06/20 19:31:59;;;;;;;27.90;15.50;;;;;;;24.33;58.31;98870.06;135993;1275;22538;-59
2023/06/20 19:35:01;;;;;;;98.50;54.20;;;;;;;24.26;58.70;98871.54;135975;1258;22523;-60
2023/06/20 19:38:05;;;;;;;761.00;469.70;;;;;;;24.18;58.70;98873.07;136018;1275;22570;-60
2023/06/20 19:41:08;;;;;;;180.40;91.40;;;;;;;24.12;59.35;98877.39;136031;1275;22535;-62
2023/06/20 19:44:11;;;;;;;35.30;19.90;;;;;;;23.97;60.53;98882.67;136139;1275;22557;-64
2023/06/20 19:47:14;;;;;;;30.70;17.00;;;;;;;23.87;61.31;98885.41;136081;1275;22594;-63
2023/06/20 19:50:16;;;;;;;28.80;16.90;;;;;;;23.78;62.17;98884.52;136086;1275;22671;-61
2023/06/20 19:53:19;;;;;;;35.40;20.50;;;;;;;23.73;62.69;98880.64;136131;1275;24085;-63
2023/06/20 19:56:21;;;;;;;31.60;19.20;;;;;;;23.67;62.34;98878.80;136117;1275;22534;-61
2023/06/20 19:59:24;;;;;;;34.90;20.20;;;;;;;23.62;62.52;98875.25;136041;1275;22527;-61
2023/06/20 20:02:27;;;;;;;31.90;17.60;;;;;;;23.52;63.97;98873.77;136124;1275;22536;-61
2023/06/20 20:05:30;;;;;;;33.70;20.40;;;;;;;23.37;64.44;98868.70;135994;1275;22636;-60
2023/06/20 20:08:32;;;;;;;33.20;20.00;;;;;;;23.24;65.80;98871.90;136034;1275;22626;-59
2023/06/20 20:11:35;;;;;;;29.50;18.50;;;;;;;23.09;67.11;98873.08;136108;1275;22534;-61
2023/06/20 20:14:37;;;;;;;30.80;17.20;;;;;;;22.94;67.67;98874.12;136095;1276;24352;-61
2023/06/20 20:17:39;;;;;;;28.60;16.90;;;;;;;22.85;67.90;98868.60;136000;1275;22536;-61
2023/06/20 20:20:42;;;;;;;29.50;17.80;;;;;;;22.85;68.39;98870.03;136096;1256;22765;-64
2023/06/20 20:23:45;;;;;;;29.30;17.40;;;;;;;22.83;68.60;98869.65;136064;1276;22994;-63
2023/06/20 20:26:49;;;;;;;29.10;18.10;;;;;;;22.80;68.97;98871.62;136099;1276;22523;-65
2023/06/20 20:29:52;;;;;;;33.60;19.50;;;;;;;22.77;69.43;98871.10;136043;1276;22539;-62
2023/06/20 20:32:54;;;;;;;40.30;22.60;;;;;;;22.75;69.75;98868.45;136054;1276;23787;-61
2023/06/20 20:35:57;;;;;;;40.10;22.30;;;;;;;22.68;70.55;98866.01;136094;1275;22549;-60
2023/06/20 20:39:00;;;;;;;37.00;21.30;;;;;;;22.65;70.90;98866.44;136073;1276;22713;-64
2023/06/20 20:42:02;;;;;;;35.40;20.90;;;;;;;22.63;71.19;98870.96;136109;1276;22523;-65
2023/06/20 20:45:05;;;;;;;29.50;19.30;;;;;;;22.55;73.67;98868.52;136104;1258;22541;-64
2023/06/20 20:48:07;;;;;;;33.20;19.70;;;;;;;22.43;74.93;98872.13;136068;1276;22535;-65
2023/06/20 20:51:10;;;;;;;29.70;17.60;;;;;;;22.29;75.88;98876.19;135989;1276;22637;-65
2023/06/20 20:54:14;;;;;;;28.90;17.40;;;;;;;22.14;76.73;98871.20;136088;1276;24040;-62
2023/06/20 20:57:16;;;;;;;28.20;18.10;;;;;;;22.09;77.59;98869.16;136085;1276;24378;-61
2023/06/20 21:00:19;;;;;;;30.40;18.80;;;;;;;22.07;78.16;98869.77;136076;1275;22550;-66
2023/06/20 21:03:21;;;;;;;33.40;20.10;;;;;;;22.03;78.57;98868.13;136123;1264;22539;-60
2023/06/20 21:06:24;;;;;;;30.70;19.90;;;;;;;22.01;78.56;98870.84;136017;1276;22529;-63
2023/06/20 21:09:27;;;;;;;30.40;19.10;;;;;;;22.01;78.65;98873.30;136120;1260;22618;-60
2023/06/20 21:12:29;;;;;;;34.80;21.40;;;;;;;21.95;79.33;98875.67;136159;1275;22558;-61
2023/06/20 21:15:32;;;;;;;36.20;21.80;;;;;;;21.91;80.13;98874.92;136115;1258;22651;-60
2023/06/20 21:18:34;;;;;;;33.70;19.70;;;;;;;21.84;81.06;98872.95;136166;1275;22540;-60
2023/06/20 21:21:37;;;;;;;30.80;19.20;;;;;;;21.82;80.62;98869.31;136109;1275;22642;-60
2023/06/20 21:24:40;;;;;;;29.00;18.20;;;;;;;21.83;80.73;98870.37;136084;1257;24199;-63
2023/06/20 21:27:42;;;;;;;32.30;19.30;;;;;;;21.82;80.76;98877.25;136142;1275;22537;-60
2023/06/20 21:30:45;;;;;;;29.60;18.20;;;;;;;21.86;80.73;98882.54;136131;1275;22542;-60
2023/06/20 21:33:47;;;;;;;30.60;18.70;;;;;;;21.81;80.99;98892.70;136127;1275;22536;-63
2023/06/20 21:36:50;;;;;;;31.20;19.30;;;;;;;21.84;80.47;98891.27;136126;1257;22533;-62
2023/06/20 21:39:52;;;;;;;28.50;18.50;;;;;;;21.86;79.97;98885.07;136116;1275;22534;-61
2023/06/20 21:42:55;;;;;;;36.50;21.40;;;;;;;21.78;80.20;98890.16;136119;1275;22541;-60
2023/06/20 21:45:57;;;;;;;32.30;20.30;;;;;;;21.64;81.20;98888.23;136116;1275;22631;-62
2023/06/20 21:49:00;;;;;;;31.40;19.40;;;;;;;21.51;82.51;98890.65;136124;1275;22548;-63
2023/06/20 21:52:03;;;;;;;29.90;19.60;;;;;;;21.46;82.41;98886.85;136096;1275;22621;-62
2023/06/20 21:55:06;;;;;;;30.30;19.00;;;;;;;21.45;82.01;98882.55;136146;1257;22635;-66
2023/06/20 21:58:08;;;;;;;30.60;18.30;;;;;;;21.43;82.35;98882.27;136086;1275;22543;-61
2023/06/20 22:01:11;;;;;;;30.60;18.80;;;;;;;21.41;81.78;98882.47;136018;1275;23187;-61
2023/06/20 22:04:14;;;;;;;35.70;20.10;;;;;;;21.44;81.85;98883.02;136141;1275;22628;-62
2023/06/20 22:07:16;;;;;;;34.30;20.40;;;;;;;21.40;81.81;98878.78;136134;1275;22526;-61
2023/06/20 22:10:19;;;;;;;31.90;20.40;;;;;;;21.30;82.21;98873.42;135993;1257;24228;-61
2023/06/20 22:13:21;;;;;;;32.40;20.10;;;;;;;21.24;82.49;98870.30;136148;1275;22526;-63
2023/06/20 22:16:24;;;;;;;31.40;20.50;;;;;;;21.16;83.57;98867.77;136061;1273;22531;-63
2023/06/20 22:19:26;;;;;;;30.20;18.20;;;;;;;21.15;84.29;98866.50;136117;1275;22794;-61
2023/06/20 22:22:29;;;;;;;30.00;18.00;;;;;;;21.10;85.47;98862.22;136154;1275;22571;-61
2023/06/20 22:25:31;;;;;;;29.60;18.10;;;;;;;21.15;84.59;98862.06;136124;1275;22562;-61
2023/06/20 22:28:34;;;;;;;29.70;17.90;;;;;;;21.15;84.78;98865.99;136135;1275;25313;-60
2023/06/20 22:31:37;;;;;;;32.30;18.50;;;;;;;21.17;84.22;98870.04;136193;1275;22523;-60
2023/06/20 22:34:39;;;;;;;32.40;19.40;;;;;;;21.19;84.08;98873.21;136115;1267;22530;-62
2023/06/20 22:37:42;;;;;;;33.80;19.00;;;;;;;21.18;84.17;98879.64;136085;1275;25220;-62
2023/06/20 22:40:44;;;;;;;31.70;18.90;;;;;;;21.10;84.84;98880.70;136095;1258;24231;-59
2023/06/20 22:43:47;;;;;;;31.20;19.20;;;;;;;21.11;85.08;98881.45;136035;1275;22620;-60
2023/06/20 22:46:49;;;;;;;31.10;18.70;;;;;;;21.16;84.89;98882.94;136134;1275;22554;-64
2023/06/20 22:49:52;;;;;;;32.80;18.00;;;;;;;21.20;84.23;98885.75;136125;1275;22535;-63
2023/06/20 22:52:54;;;;;;;29.50;17.30;;;;;;;21.29;83.30;98886.69;136111;1275;22569;-64
2023/06/20 22:55:57;;;;;;;31.40;17.40;;;;;;;21.34;82.84;98891.54;136095;1275;22545;-63
2023/06/20 22:58:59;;;;;;;30.00;17.50;;;;;;;21.34;82.81;98892.61;136138;1275;22536;-62
2023/06/20 23:02:02;;;;;;;31.00;19.00;;;;;;;21.35;83.03;98894.25;136134;1275;22556;-62
2023/06/20 23:05:05;;;;;;;29.20;17.50;;;;;;;21.37;82.85;98890.55;136085;1275;22542;-62
2023/06/20 23:08:08;;;;;;;29.70;18.80;;;;;;;21.41;82.39;98890.66;136115;1275;22523;-65
2023/06/20 23:11:11;;;;;;;29.90;17.90;;;;;;;21.41;82.27;98891.10;136162;1275;24262;-63
2023/06/20 23:14:13;;;;;;;31.30;18.30;;;;;;;21.39;81.93;98891.52;136115;1275;22530;-63
2023/06/20 23:17:15;;;;;;;31.70;18.70;;;;;;;21.38;81.78;98889.29;136109;1275;22558;-61
2023/06/20 23:20:19;;;;;;;31.10;18.10;;;;;;;21.34;82.14;98885.84;136029;1275;22547;-60
2023/06/20 23:23:21;;;;;;;29.80;17.50;;;;;;;21.34;82.06;98876.27;136102;1275;22552;-64
2023/06/20 23:26:24;;;;;;;30.40;17.20;;;;;;;21.34;81.58;98874.51;136086;1275;22526;-60
2023/06/20 23:29:26;;;;;;;28.20;15.80;;;;;;;21.38;81.02;98876.85;136103;1275;22554;-61
2023/06/20 23:32:29;;;;;;;28.70;16.00;;;;;;;21.44;80.68;98878.41;136154;1275;22540;-63
2023/06/20 23:35:31;;;;;;;29.50;16.30;;;;;;;21.38;80.66;98881.52;136114;1260;22535;-61
2023/06/20 23:38:35;;;;;;;30.90;17.30;;;;;;;21.25;81.61;98879.34;136095;1275;22533;-62
2023/06/20 23:41:38;;;;;;;28.60;16.30;;;;;;;21.33;80.98;98874.73;136072;1275;22524;-61
2023/06/20 23:44:42;;;;;;;27.20;16.30;;;;;;;21.34;80.61;98877.61;136111;1275;22530;-60
2023/06/20 23:47:44;;;;;;;30.30;17.30;;;;;;;21.35;80.03;98876.64;136140;1275;22546;-60
2023/06/20 23:50:47;;;;;;;28.60;17.50;;;;;;;21.34;79.63;98877.92;136119;1255;22613;-61
2023/06/20 23:53:49;;;;;;;29.50;17.40;;;;;;;21.27;79.48;98877.06;136113;1275;22671;-62
2023/06/20 23:56:51;;;;;;;29.90;18.10;;;;;;;21.23;79.69;98872.73;136116;1275;22579;-63
2023/06/20 23:59:54;;;;;;;29.70;17.40;;;;;;;21.21;79.73;98868.05;136115;1275;22529;-63
